sensor_id;sensor_type;location;lat;lon;timestamp;pressure;altitude;pressure_sealevel;temperature;humidity
70815;BME280;58428;49.478;10.986;2023-05-22T00:00:09;98062.56;;;16.86;100.00
70815;BME280;58428;49.478;10.986;2023-05-22T00:02:37;98065.16;;;16.76;100.00
70815;BME280;58428;49.478;10.986;2023-05-22T00:05:10;98061.19;;;16.70;100.00
70815;BME280;58428;49.478;10.986;2023-05-22T00:07:37;98058.06;;;16.68;100.00
70815;BME280;58428;49.478;10.986;2023-05-22T00:10:04;98061.13;;;16.63;100.00
70815;BME280;58428;49.478;10.986;2023-05-22T00:12:29;98061.88;;;16.60;100.00
70815;BME280;58428;49.478;10.986;2023-05-22T00:14:55;98060.69;;;16.58;100.00
70815;BME280;58428;49.478;10.986;2023-05-22T00:17:20;98053.19;;;16.51;100.00
70815;BME280;58428;49.478;10.986;2023-05-22T00:19:45;98050.00;;;16.46;100.00
70815;BME280;58428;49.478;10.986;2023-05-22T00:22:11;98050.25;;;16.37;100.00
70815;BME280;58428;49.478;10.986;2023-05-22T00:24:37;98049.84;;;16.35;100.00
70815;BME280;58428;49.478;10.986;2023-05-22T00:27:03;98048.66;;;16.33;100.00
70815;BME280;58428;49.478;10.986;2023-05-22T00:29:28;98051.81;;;16.35;100.00
70815;BME280;58428;49.478;10.986;2023-05-22T00:31:53;98047.50;;;16.34;100.00
70815;BME280;58428;49.478;10.986;2023-05-22T00:34:20;98042.38;;;16.29;100.00
70815;BME280;58428;49.478;10.986;2023-05-22T00:36:47;98054.41;;;16.24;100.00
70815;BME280;58428;49.478;10.986;2023-05-22T00:39:12;98049.69;;;16.21;100.00
70815;BME280;58428;49.478;10.986;2023-05-22T00:41:37;98050.09;;;16.23;100.00
70815;BME280;58428;49.478;10.986;2023-05-22T00:44:03;98046.53;;;16.20;100.00
70815;BME280;58428;49.478;10.986;2023-05-22T00:46:28;98053.22;;;16.22;100.00
70815;BME280;58428;49.478;10.986;2023-05-22T00:48:54;98044.22;;;16.21;100.00
70815;BME280;58428;49.478;10.986;2023-05-22T00:51:23;98045.34;;;16.17;100.00
70815;BME280;58428;49.478;10.986;2023-05-22T00:53:49;98041.00;;;16.16;100.00
70815;BME280;58428;49.478;10.986;2023-05-22T00:56:15;98042.94;;;16.16;100.00
70815;BME280;58428;49.478;10.986;2023-05-22T00:58:41;98048.34;;;16.12;100.00
70815;BME280;58428;49.478;10.986;2023-05-22T01:01:09;98045.63;;;16.12;100.00
70815;BME280;58428;49.478;10.986;2023-05-22T01:03:37;98046.00;;;16.11;100.00
70815;BME280;58428;49.478;10.986;2023-05-22T01:06:09;98046.72;;;16.08;100.00
70815;BME280;58428;49.478;10.986;2023-05-22T01:08:35;98043.94;;;16.04;100.00
70815;BME280;58428;49.478;10.986;2023-05-22T01:11:04;98046.66;;;16.01;100.00
70815;BME280;58428;49.478;10.986;2023-05-22T01:16:12;98052.28;;;15.85;100.00
70815;BME280;58428;49.478;10.986;2023-05-22T01:18:56;98044.75;;;15.79;100.00
70815;BME280;58428;49.478;10.986;2023-05-22T01:26:37;98052.75;;;15.65;100.00
70815;BME280;58428;49.478;10.986;2023-05-22T01:31:33;98058.53;;;15.60;100.00
70815;BME280;58428;49.478;10.986;2023-05-22T01:34:02;98059.19;;;15.54;100.00
70815;BME280;58428;49.478;10.986;2023-05-22T01:36:34;98052.16;;;15.53;100.00
70815;BME280;58428;49.478;10.986;2023-05-22T01:39:01;98057.13;;;15.47;100.00
70815;BME280;58428;49.478;10.986;2023-05-22T01:41:31;98062.66;;;15.51;100.00
70815;BME280;58428;49.478;10.986;2023-05-22T01:43:57;98060.63;;;15.48;100.00
70815;BME280;58428;49.478;10.986;2023-05-22T01:46:29;98055.56;;;15.47;100.00
70815;BME280;58428;49.478;10.986;2023-05-22T01:48:55;98054.78;;;15.46;100.00
70815;BME280;58428;49.478;10.986;2023-05-22T01:54:22;98056.72;;;15.46;100.00
70815;BME280;58428;49.478;10.986;2023-05-22T01:59:51;98055.16;;;15.45;100.00
70815;BME280;58428;49.478;10.986;2023-05-22T02:02:20;98056.34;;;15.47;100.00
70815;BME280;58428;49.478;10.986;2023-05-22T02:05:00;98054.81;;;15.49;100.00
70815;BME280;58428;49.478;10.986;2023-05-22T02:07:28;98058.72;;;15.48;100.00
70815;BME280;58428;49.478;10.986;2023-05-22T02:09:55;98055.59;;;15.50;100.00
70815;BME280;58428;49.478;10.986;2023-05-22T02:12:22;98064.97;;;15.49;100.00
70815;BME280;58428;49.478;10.986;2023-05-22T02:14:48;98062.53;;;15.44;100.00
70815;BME280;58428;49.478;10.986;2023-05-22T02:17:13;98066.09;;;15.48;100.00
70815;BME280;58428;49.478;10.986;2023-05-22T02:19:40;98059.69;;;15.37;100.00
70815;BME280;58428;49.478;10.986;2023-05-22T02:22:05;98059.22;;;15.32;100.00
70815;BME280;58428;49.478;10.986;2023-05-22T02:24:33;98061.88;;;15.28;100.00
70815;BME280;58428;49.478;10.986;2023-05-22T02:27:00;98060.59;;;15.22;100.00
70815;BME280;58428;49.478;10.986;2023-05-22T02:29:27;98056.31;;;15.21;100.00
70815;BME280;58428;49.478;10.986;2023-05-22T02:31:53;98053.19;;;15.19;100.00
70815;BME280;58428;49.478;10.986;2023-05-22T02:34:18;98055.16;;;15.22;100.00
70815;BME280;58428;49.478;10.986;2023-05-22T02:36:45;98050.38;;;15.16;100.00
70815;BME280;58428;49.478;10.986;2023-05-22T02:39:11;98048.69;;;15.11;100.00
70815;BME280;58428;49.478;10.986;2023-05-22T02:41:37;98060.25;;;15.05;100.00
70815;BME280;58428;49.478;10.986;2023-05-22T02:44:03;98050.97;;;15.06;100.00
70815;BME280;58428;49.478;10.986;2023-05-22T02:46:29;98052.44;;;15.04;100.00
70815;BME280;58428;49.478;10.986;2023-05-22T02:48:54;98053.97;;;15.01;100.00
70815;BME280;58428;49.478;10.986;2023-05-22T02:51:19;98048.09;;;14.99;100.00
70815;BME280;58428;49.478;10.986;2023-05-22T02:53:45;98052.41;;;15.00;100.00
70815;BME280;58428;49.478;10.986;2023-05-22T02:56:10;98055.13;;;15.00;100.00
70815;BME280;58428;49.478;10.986;2023-05-22T02:58:36;98053.53;;;14.99;100.00
70815;BME280;58428;49.478;10.986;2023-05-22T03:01:01;98061.66;;;14.96;100.00
70815;BME280;58428;49.478;10.986;2023-05-22T03:03:27;98056.63;;;14.98;100.00
70815;BME280;58428;49.478;10.986;2023-05-22T03:05:53;98062.31;;;14.89;100.00
70815;BME280;58428;49.478;10.986;2023-05-22T03:08:23;98060.03;;;14.91;100.00
70815;BME280;58428;49.478;10.986;2023-05-22T03:10:48;98058.00;;;14.88;100.00
70815;BME280;58428;49.478;10.986;2023-05-22T03:13:14;98058.38;;;14.87;100.00
70815;BME280;58428;49.478;10.986;2023-05-22T03:15:40;98058.81;;;14.89;100.00
70815;BME280;58428;49.478;10.986;2023-05-22T03:18:05;98062.59;;;14.84;100.00
70815;BME280;58428;49.478;10.986;2023-05-22T03:20:31;98056.44;;;14.87;100.00
70815;BME280;58428;49.478;10.986;2023-05-22T03:22:56;98063.41;;;14.85;100.00
70815;BME280;58428;49.478;10.986;2023-05-22T03:25:22;98055.66;;;14.87;100.00
70815;BME280;58428;49.478;10.986;2023-05-22T03:27:49;98064.13;;;14.82;100.00
70815;BME280;58428;49.478;10.986;2023-05-22T03:30:14;98057.81;;;14.78;100.00
70815;BME280;58428;49.478;10.986;2023-05-22T03:32:41;98064.78;;;14.75;100.00
70815;BME280;58428;49.478;10.986;2023-05-22T03:35:07;98064.78;;;14.75;100.00
70815;BME280;58428;49.478;10.986;2023-05-22T03:37:32;98062.50;;;14.77;100.00
70815;BME280;58428;49.478;10.986;2023-05-22T03:39:58;98064.34;;;14.73;100.00
70815;BME280;58428;49.478;10.986;2023-05-22T03:42:23;98062.84;;;14.76;100.00
70815;BME280;58428;49.478;10.986;2023-05-22T03:44:49;98065.50;;;14.72;100.00
70815;BME280;58428;49.478;10.986;2023-05-22T03:47:14;98063.56;;;14.73;100.00
70815;BME280;58428;49.478;10.986;2023-05-22T03:49:40;98059.34;;;14.75;100.00
70815;BME280;58428;49.478;10.986;2023-05-22T03:52:08;98056.69;;;14.79;100.00
70815;BME280;58428;49.478;10.986;2023-05-22T03:54:33;98054.31;;;14.77;100.00
70815;BME280;58428;49.478;10.986;2023-05-22T03:56:59;98066.50;;;14.83;100.00
70815;BME280;58428;49.478;10.986;2023-05-22T03:59:24;98061.47;;;14.85;100.00
70815;BME280;58428;49.478;10.986;2023-05-22T04:01:50;98065.41;;;14.88;100.00
70815;BME280;58428;49.478;10.986;2023-05-22T04:04:15;98061.97;;;14.91;100.00
70815;BME280;58428;49.478;10.986;2023-05-22T04:06:41;98062.81;;;14.95;100.00
70815;BME280;58428;49.478;10.986;2023-05-22T04:09:09;98063.59;;;14.95;100.00
70815;BME280;58428;49.478;10.986;2023-05-22T04:11:38;98065.13;;;14.93;100.00
70815;BME280;58428;49.478;10.986;2023-05-22T04:14:05;98069.03;;;14.95;100.00
70815;BME280;58428;49.478;10.986;2023-05-22T04:16:31;98076.44;;;14.95;100.00
70815;BME280;58428;49.478;10.986;2023-05-22T04:18:57;98076.53;;;15.02;100.00
70815;BME280;58428;49.478;10.986;2023-05-22T04:21:22;98074.31;;;15.07;100.00
70815;BME280;58428;49.478;10.986;2023-05-22T04:23:48;98075.25;;;15.14;100.00
70815;BME280;58428;49.478;10.986;2023-05-22T04:26:15;98077.31;;;15.21;100.00
70815;BME280;58428;49.478;10.986;2023-05-22T04:28:42;98073.56;;;15.29;100.00
70815;BME280;58428;49.478;10.986;2023-05-22T04:31:11;98073.75;;;15.39;100.00
70815;BME280;58428;49.478;10.986;2023-05-22T04:33:37;98069.66;;;15.52;100.00
70815;BME280;58428;49.478;10.986;2023-05-22T04:36:05;98073.78;;;15.65;100.00
70815;BME280;58428;49.478;10.986;2023-05-22T04:38:31;98067.75;;;15.78;100.00
70815;BME280;58428;49.478;10.986;2023-05-22T04:41:01;98076.88;;;15.89;100.00
70815;BME280;58428;49.478;10.986;2023-05-22T04:43:26;98070.00;;;15.98;100.00
70815;BME280;58428;49.478;10.986;2023-05-22T04:45:51;98072.72;;;15.98;100.00
70815;BME280;58428;49.478;10.986;2023-05-22T04:48:18;98073.66;;;16.09;100.00
70815;BME280;58428;49.478;10.986;2023-05-22T04:50:44;98072.69;;;16.21;100.00
70815;BME280;58428;49.478;10.986;2023-05-22T04:53:13;98071.50;;;16.18;100.00
70815;BME280;58428;49.478;10.986;2023-05-22T04:55:38;98076.56;;;16.20;100.00
70815;BME280;58428;49.478;10.986;2023-05-22T04:58:04;98078.19;;;16.24;100.00
70815;BME280;58428;49.478;10.986;2023-05-22T05:00:30;98084.50;;;16.28;100.00
70815;BME280;58428;49.478;10.986;2023-05-22T05:02:57;98073.28;;;16.36;100.00
70815;BME280;58428;49.478;10.986;2023-05-22T05:05:24;98079.28;;;16.49;100.00
70815;BME280;58428;49.478;10.986;2023-05-22T05:07:49;98084.44;;;16.54;100.00
70815;BME280;58428;49.478;10.986;2023-05-22T05:10:15;98082.84;;;16.53;100.00
70815;BME280;58428;49.478;10.986;2023-05-22T05:12:41;98071.66;;;16.64;100.00
70815;BME280;58428;49.478;10.986;2023-05-22T05:15:10;98071.41;;;16.73;100.00
70815;BME280;58428;49.478;10.986;2023-05-22T05:17:36;98071.03;;;16.78;100.00
70815;BME280;58428;49.478;10.986;2023-05-22T05:20:07;98074.66;;;16.85;100.00
70815;BME280;58428;49.478;10.986;2023-05-22T05:22:32;98081.03;;;16.96;100.00
70815;BME280;58428;49.478;10.986;2023-05-22T05:24:58;98075.63;;;17.03;100.00
70815;BME280;58428;49.478;10.986;2023-05-22T05:27:23;98073.38;;;17.12;100.00
70815;BME280;58428;49.478;10.986;2023-05-22T05:29:49;98077.03;;;17.23;100.00
70815;BME280;58428;49.478;10.986;2023-05-22T05:32:15;98075.13;;;17.30;100.00
70815;BME280;58428;49.478;10.986;2023-05-22T05:34:40;98072.84;;;17.35;100.00
70815;BME280;58428;49.478;10.986;2023-05-22T05:37:06;98075.97;;;17.37;100.00
70815;BME280;58428;49.478;10.986;2023-05-22T05:39:31;98070.25;;;17.53;100.00
70815;BME280;58428;49.478;10.986;2023-05-22T05:41:58;98072.34;;;17.69;100.00
70815;BME280;58428;49.478;10.986;2023-05-22T05:44:24;98075.53;;;17.78;100.00
70815;BME280;58428;49.478;10.986;2023-05-22T05:46:49;98082.97;;;17.78;100.00
70815;BME280;58428;49.478;10.986;2023-05-22T05:49:15;98077.56;;;17.85;100.00
70815;BME280;58428;49.478;10.986;2023-05-22T05:51:40;98081.53;;;17.94;100.00
70815;BME280;58428;49.478;10.986;2023-05-22T05:54:05;98080.00;;;18.04;100.00
70815;BME280;58428;49.478;10.986;2023-05-22T05:56:31;98077.31;;;18.07;100.00
70815;BME280;58428;49.478;10.986;2023-05-22T05:58:57;98082.47;;;18.15;100.00
70815;BME280;58428;49.478;10.986;2023-05-22T06:01:25;98071.19;;;18.24;100.00
70815;BME280;58428;49.478;10.986;2023-05-22T06:03:52;98077.50;;;18.31;100.00
70815;BME280;58428;49.478;10.986;2023-05-22T06:06:18;98084.56;;;18.42;100.00
70815;BME280;58428;49.478;10.986;2023-05-22T06:08:43;98077.22;;;18.57;100.00
70815;BME280;58428;49.478;10.986;2023-05-22T06:11:09;98086.59;;;18.56;100.00
70815;BME280;58428;49.478;10.986;2023-05-22T06:13:35;98074.88;;;18.66;100.00
70815;BME280;58428;49.478;10.986;2023-05-22T06:16:00;98086.31;;;18.78;100.00
70815;BME280;58428;49.478;10.986;2023-05-22T06:18:26;98090.66;;;18.89;100.00
70815;BME280;58428;49.478;10.986;2023-05-22T06:20:51;98077.00;;;19.03;100.00
70815;BME280;58428;49.478;10.986;2023-05-22T06:23:19;98078.97;;;19.10;100.00
70815;BME280;58428;49.478;10.986;2023-05-22T06:25:44;98080.94;;;19.13;100.00
70815;BME280;58428;49.478;10.986;2023-05-22T06:28:10;98079.00;;;19.20;100.00
70815;BME280;58428;49.478;10.986;2023-05-22T06:30:36;98082.50;;;19.14;100.00
70815;BME280;58428;49.478;10.986;2023-05-22T06:33:01;98075.50;;;19.26;100.00
70815;BME280;58428;49.478;10.986;2023-05-22T06:35:28;98069.59;;;19.31;100.00
70815;BME280;58428;49.478;10.986;2023-05-22T06:37:54;98079.41;;;19.43;100.00
70815;BME280;58428;49.478;10.986;2023-05-22T06:40:23;98075.91;;;19.59;100.00
70815;BME280;58428;49.478;10.986;2023-05-22T06:42:49;98067.28;;;19.75;100.00
70815;BME280;58428;49.478;10.986;2023-05-22T06:45:15;98066.13;;;19.83;100.00
70815;BME280;58428;49.478;10.986;2023-05-22T06:47:42;98066.50;;;19.81;100.00
70815;BME280;58428;49.478;10.986;2023-05-22T06:50:08;98071.22;;;19.84;100.00
70815;BME280;58428;49.478;10.986;2023-05-22T06:52:34;98065.72;;;19.91;100.00
70815;BME280;58428;49.478;10.986;2023-05-22T06:55:01;98065.72;;;20.01;100.00
70815;BME280;58428;49.478;10.986;2023-05-22T06:57:32;98072.34;;;20.11;100.00
70815;BME280;58428;49.478;10.986;2023-05-22T06:59:58;98064.09;;;20.25;100.00
70815;BME280;58428;49.478;10.986;2023-05-22T07:02:23;98064.84;;;20.35;100.00
70815;BME280;58428;49.478;10.986;2023-05-22T07:04:49;98076.22;;;20.44;100.00
70815;BME280;58428;49.478;10.986;2023-05-22T07:07:16;98064.78;;;20.56;100.00
70815;BME280;58428;49.478;10.986;2023-05-22T07:09:42;98063.59;;;20.64;100.00
70815;BME280;58428;49.478;10.986;2023-05-22T07:12:08;98065.88;;;20.83;100.00
70815;BME280;58428;49.478;10.986;2023-05-22T07:14:33;98069.69;;;20.99;100.00
70815;BME280;58428;49.478;10.986;2023-05-22T07:16:59;98064.56;;;21.08;100.00
70815;BME280;58428;49.478;10.986;2023-05-22T07:19:25;98060.13;;;21.21;100.00
70815;BME280;58428;49.478;10.986;2023-05-22T07:21:50;98060.09;;;21.31;100.00
70815;BME280;58428;49.478;10.986;2023-05-22T07:24:16;98070.59;;;21.46;100.00
70815;BME280;58428;49.478;10.986;2023-05-22T07:26:41;98061.50;;;21.56;100.00
70815;BME280;58428;49.478;10.986;2023-05-22T07:29:14;98068.16;;;21.59;100.00
70815;BME280;58428;49.478;10.986;2023-05-22T07:31:40;98059.81;;;21.69;100.00
70815;BME280;58428;49.478;10.986;2023-05-22T07:34:24;98060.88;;;21.82;100.00
70815;BME280;58428;49.478;10.986;2023-05-22T07:36:56;98054.03;;;21.97;100.00
70815;BME280;58428;49.478;10.986;2023-05-22T07:39:21;98059.47;;;22.07;100.00
70815;BME280;58428;49.478;10.986;2023-05-22T07:41:47;98054.22;;;22.19;100.00
70815;BME280;58428;49.478;10.986;2023-05-22T07:44:17;98055.69;;;22.31;100.00
70815;BME280;58428;49.478;10.986;2023-05-22T07:46:43;98049.28;;;22.41;100.00
70815;BME280;58428;49.478;10.986;2023-05-22T07:49:08;98052.41;;;22.43;100.00
70815;BME280;58428;49.478;10.986;2023-05-22T07:51:34;98055.47;;;22.52;100.00
70815;BME280;58428;49.478;10.986;2023-05-22T07:54:00;98052.19;;;22.60;100.00
70815;BME280;58428;49.478;10.986;2023-05-22T07:56:27;98055.25;;;22.69;100.00
70815;BME280;58428;49.478;10.986;2023-05-22T07:58:52;98054.38;;;22.75;100.00
70815;BME280;58428;49.478;10.986;2023-05-22T08:01:19;98051.94;;;22.81;100.00
70815;BME280;58428;49.478;10.986;2023-05-22T08:03:45;98049.16;;;22.84;100.00
70815;BME280;58428;49.478;10.986;2023-05-22T08:06:12;98049.47;;;22.90;100.00
70815;BME280;58428;49.478;10.986;2023-05-22T08:08:39;98051.38;;;22.96;100.00
70815;BME280;58428;49.478;10.986;2023-05-22T08:11:05;98055.97;;;23.06;100.00
70815;BME280;58428;49.478;10.986;2023-05-22T08:13:30;98049.56;;;23.12;100.00
70815;BME280;58428;49.478;10.986;2023-05-22T08:15:56;98045.50;;;23.20;100.00
70815;BME280;58428;49.478;10.986;2023-05-22T08:18:21;98047.75;;;23.28;100.00
70815;BME280;58428;49.478;10.986;2023-05-22T08:20:47;98042.88;;;23.36;100.00
70815;BME280;58428;49.478;10.986;2023-05-22T08:23:13;98038.00;;;23.47;100.00
70815;BME280;58428;49.478;10.986;2023-05-22T08:25:40;98042.13;;;23.62;100.00
70815;BME280;58428;49.478;10.986;2023-05-22T08:28:06;98038.78;;;23.73;100.00
70815;BME280;58428;49.478;10.986;2023-05-22T08:30:31;98036.31;;;23.79;100.00
70815;BME280;58428;49.478;10.986;2023-05-22T08:32:57;98037.03;;;23.83;100.00
70815;BME280;58428;49.478;10.986;2023-05-22T08:35:23;98034.06;;;23.93;100.00
70815;BME280;58428;49.478;10.986;2023-05-22T08:37:49;98030.34;;;24.03;100.00
70815;BME280;58428;49.478;10.986;2023-05-22T08:40:15;98030.34;;;24.03;100.00
70815;BME280;58428;49.478;10.986;2023-05-22T08:42:42;98032.91;;;24.13;100.00
70815;BME280;58428;49.478;10.986;2023-05-22T08:45:07;98025.22;;;24.02;100.00
70815;BME280;58428;49.478;10.986;2023-05-22T08:47:34;98028.69;;;24.05;100.00
70815;BME280;58428;49.478;10.986;2023-05-22T08:50:01;98025.75;;;24.16;100.00
70815;BME280;58428;49.478;10.986;2023-05-22T08:52:43;98025.97;;;24.25;100.00
70815;BME280;58428;49.478;10.986;2023-05-22T08:55:12;98020.06;;;24.26;100.00
70815;BME280;58428;49.478;10.986;2023-05-22T08:57:37;98011.41;;;24.43;100.00
70815;BME280;58428;49.478;10.986;2023-05-22T09:00:05;98019.13;;;24.52;100.00
70815;BME280;58428;49.478;10.986;2023-05-22T09:02:33;98011.34;;;24.66;100.00
70815;BME280;58428;49.478;10.986;2023-05-22T09:04:58;98016.56;;;24.80;100.00
70815;BME280;58428;49.478;10.986;2023-05-22T09:07:29;98010.03;;;24.90;100.00
70815;BME280;58428;49.478;10.986;2023-05-22T09:09:55;98010.69;;;24.97;100.00
70815;BME280;58428;49.478;10.986;2023-05-22T09:12:21;98006.91;;;25.07;100.00
70815;BME280;58428;49.478;10.986;2023-05-22T09:14:46;98006.66;;;25.17;100.00
70815;BME280;58428;49.478;10.986;2023-05-22T09:17:15;98011.75;;;25.19;100.00
70815;BME280;58428;49.478;10.986;2023-05-22T09:19:44;98007.78;;;25.20;100.00
70815;BME280;58428;49.478;10.986;2023-05-22T09:22:14;98005.94;;;25.14;97.96
70815;BME280;58428;49.478;10.986;2023-05-22T09:24:41;98000.84;;;25.12;98.47
70815;BME280;58428;49.478;10.986;2023-05-22T09:27:08;98006.66;;;25.17;100.00
70815;BME280;58428;49.478;10.986;2023-05-22T09:29:50;98009.16;;;25.12;96.69
70815;BME280;58428;49.478;10.986;2023-05-22T09:32:18;97994.03;;;25.16;100.00
70815;BME280;58428;49.478;10.986;2023-05-22T09:34:44;97995.00;;;25.26;95.36
70815;BME280;58428;49.478;10.986;2023-05-22T09:37:11;97999.59;;;25.32;95.25
70815;BME280;58428;49.478;10.986;2023-05-22T09:39:47;98000.00;;;25.47;95.23
70815;BME280;58428;49.478;10.986;2023-05-22T09:42:15;97992.19;;;25.61;100.00
70815;BME280;58428;49.478;10.986;2023-05-22T09:44:48;97995.09;;;25.70;94.81
70815;BME280;58428;49.478;10.986;2023-05-22T09:47:17;97995.63;;;25.65;92.57
70815;BME280;58428;49.478;10.986;2023-05-22T09:49:44;97997.88;;;25.70;91.96
70815;BME280;58428;49.478;10.986;2023-05-22T09:52:13;97990.94;;;25.62;88.44
70815;BME280;58428;49.478;10.986;2023-05-22T09:54:55;97990.59;;;25.76;90.46
70815;BME280;58428;49.478;10.986;2023-05-22T09:57:24;97983.41;;;25.78;89.16
70815;BME280;58428;49.478;10.986;2023-05-22T09:59:54;97985.56;;;25.87;90.26
70815;BME280;58428;49.478;10.986;2023-05-22T10:02:25;97977.72;;;25.97;89.81
70815;BME280;58428;49.478;10.986;2023-05-22T10:04:53;97971.50;;;26.09;92.15
70815;BME280;58428;49.478;10.986;2023-05-22T10:07:23;97977.44;;;26.24;91.78
70815;BME280;58428;49.478;10.986;2023-05-22T10:09:58;97976.72;;;26.35;86.98
70815;BME280;58428;49.478;10.986;2023-05-22T10:12:27;97981.06;;;26.36;84.42
70815;BME280;58428;49.478;10.986;2023-05-22T10:14:57;97969.06;;;26.39;85.13
70815;BME280;58428;49.478;10.986;2023-05-22T10:17:24;97973.28;;;26.44;82.87
70815;BME280;58428;49.478;10.986;2023-05-22T10:19:53;97965.09;;;26.40;77.68
70815;BME280;58428;49.478;10.986;2023-05-22T10:22:20;97962.66;;;26.42;83.71
70815;BME280;58428;49.478;10.986;2023-05-22T10:24:49;97966.63;;;26.41;79.42
70815;BME280;58428;49.478;10.986;2023-05-22T10:27:16;97961.31;;;26.47;83.42
70815;BME280;58428;49.478;10.986;2023-05-22T10:29:48;97955.34;;;26.61;82.64
70815;BME280;58428;49.478;10.986;2023-05-22T10:35:00;97961.56;;;26.64;75.40
70815;BME280;58428;49.478;10.986;2023-05-22T10:37:54;97961.38;;;26.71;79.10
70815;BME280;58428;49.478;10.986;2023-05-22T10:40:32;97959.53;;;26.81;80.64
70815;BME280;58428;49.478;10.986;2023-05-22T10:43:01;97954.75;;;26.94;80.24
70815;BME280;58428;49.478;10.986;2023-05-22T10:45:29;97951.66;;;27.04;76.45
70815;BME280;58428;49.478;10.986;2023-05-22T10:48:09;97966.09;;;27.11;75.29
70815;BME280;58428;49.478;10.986;2023-05-22T10:50:39;97959.31;;;27.12;75.84
70815;BME280;58428;49.478;10.986;2023-05-22T10:56:09;97954.19;;;27.23;73.70
70815;BME280;58428;49.478;10.986;2023-05-22T10:58:36;97951.19;;;27.30;74.21
70815;BME280;58428;49.478;10.986;2023-05-22T11:03:59;97949.41;;;27.48;68.77
70815;BME280;58428;49.478;10.986;2023-05-22T11:09:34;97946.09;;;27.41;63.93
70815;BME280;58428;49.478;10.986;2023-05-22T11:12:12;97928.84;;;27.46;69.14
70815;BME280;58428;49.478;10.986;2023-05-22T11:17:28;97929.50;;;27.62;66.58
70815;BME280;58428;49.478;10.986;2023-05-22T11:22:40;97930.63;;;27.40;68.89
70815;BME280;58428;49.478;10.986;2023-05-22T11:27:35;97936.88;;;26.95;69.06
70815;BME280;58428;49.478;10.986;2023-05-22T11:30:01;97936.09;;;26.94;69.93
70815;BME280;58428;49.478;10.986;2023-05-22T11:32:26;97933.88;;;27.14;70.92
70815;BME280;58428;49.478;10.986;2023-05-22T11:34:56;97930.97;;;27.30;66.94
70815;BME280;58428;49.478;10.986;2023-05-22T11:37:23;97925.31;;;27.45;68.37
70815;BME280;58428;49.478;10.986;2023-05-22T11:39:54;97922.41;;;27.49;65.37
70815;BME280;58428;49.478;10.986;2023-05-22T11:42:20;97924.66;;;27.17;59.46
70815;BME280;58428;49.478;10.986;2023-05-22T11:44:45;97923.53;;;27.02;63.66
70815;BME280;58428;49.478;10.986;2023-05-22T11:47:12;97916.88;;;27.00;67.25
70815;BME280;58428;49.478;10.986;2023-05-22T11:49:41;97914.31;;;27.05;66.20
70815;BME280;58428;49.478;10.986;2023-05-22T11:52:08;97906.31;;;27.19;62.92
70815;BME280;58428;49.478;10.986;2023-05-22T11:54:34;97905.53;;;27.43;63.75
70815;BME280;58428;49.478;10.986;2023-05-22T11:57:04;97901.34;;;27.73;65.77
70815;BME280;58428;49.478;10.986;2023-05-22T11:59:31;97904.88;;;27.73;63.22
70815;BME280;58428;49.478;10.986;2023-05-22T12:01:59;97901.72;;;27.62;68.78
70815;BME280;58428;49.478;10.986;2023-05-22T12:04:24;97909.19;;;27.53;65.68
70815;BME280;58428;49.478;10.986;2023-05-22T12:06:51;97898.50;;;27.39;62.20
70815;BME280;58428;49.478;10.986;2023-05-22T12:09:17;97903.19;;;27.42;60.58
70815;BME280;58428;49.478;10.986;2023-05-22T12:11:46;97897.03;;;27.59;62.09
70815;BME280;58428;49.478;10.986;2023-05-22T12:14:13;97897.41;;;27.82;63.57
70815;BME280;58428;49.478;10.986;2023-05-22T12:16:39;97890.88;;;27.98;62.94
70815;BME280;58428;49.478;10.986;2023-05-22T12:19:08;97894.22;;;28.05;59.31
70815;BME280;58428;49.478;10.986;2023-05-22T12:21:36;97897.81;;;27.93;58.08
70815;BME280;58428;49.478;10.986;2023-05-22T12:24:03;97888.66;;;27.72;56.97
70815;BME280;58428;49.478;10.986;2023-05-22T12:26:30;97897.47;;;27.70;57.03
70815;BME280;58428;49.478;10.986;2023-05-22T12:29:16;97897.00;;;27.93;52.68
70815;BME280;58428;49.478;10.986;2023-05-22T12:31:44;97888.38;;;28.12;58.73
70815;BME280;58428;49.478;10.986;2023-05-22T12:34:13;97890.53;;;28.29;51.52
70815;BME280;58428;49.478;10.986;2023-05-22T12:36:41;97887.13;;;28.55;60.45
70815;BME280;58428;49.478;10.986;2023-05-22T12:39:08;97888.66;;;28.78;59.12
70815;BME280;58428;49.478;10.986;2023-05-22T12:41:35;97887.31;;;28.91;53.43
70815;BME280;58428;49.478;10.986;2023-05-22T12:44:01;97880.88;;;29.03;53.39
70815;BME280;58428;49.478;10.986;2023-05-22T12:46:30;97880.00;;;29.15;53.01
70815;BME280;58428;49.478;10.986;2023-05-22T12:48:56;97881.13;;;29.26;52.42
70815;BME280;58428;49.478;10.986;2023-05-22T12:51:22;97879.91;;;29.36;52.92
70815;BME280;58428;49.478;10.986;2023-05-22T12:53:49;97886.41;;;29.33;48.81
70815;BME280;58428;49.478;10.986;2023-05-22T12:56:15;97876.06;;;29.42;52.18
70815;BME280;58428;49.478;10.986;2023-05-22T12:58:42;97879.16;;;29.53;52.87
70815;BME280;58428;49.478;10.986;2023-05-22T13:01:09;97874.09;;;29.69;54.39
70815;BME280;58428;49.478;10.986;2023-05-22T13:03:37;97871.31;;;29.87;49.85
70815;BME280;58428;49.478;10.986;2023-05-22T13:06:03;97874.72;;;29.82;47.39
70815;BME280;58428;49.478;10.986;2023-05-22T13:08:31;97872.09;;;29.79;45.82
70815;BME280;58428;49.478;10.986;2023-05-22T13:10:57;97871.44;;;29.66;44.00
70815;BME280;58428;49.478;10.986;2023-05-22T13:13:22;97871.75;;;29.50;43.14
70815;BME280;58428;49.478;10.986;2023-05-22T13:15:49;97865.53;;;29.55;46.20
70815;BME280;58428;49.478;10.986;2023-05-22T13:18:15;97864.19;;;29.86;47.10